Pagrindinis puslapis
METAR-TAF:

METAR-TAF

Oro uostai :

St. George, Aliaska, Jungtinės Amerikos Valstijos

platuma: 56-34-43N, ilguma: 169-39-41W, Aukštis: 38 m

Dabartinis oras

Ataskaita buvo paskelbta 40 minutes, ne 07:53 UTC
Vėjas 7 kt iš Šiaurės Vakarų
Temperatūra 11°C
Drėgmė 87%
Slėgis 1017 hPa
Matomumas: 16.1 km
Apsiniaukę ne aukštis 2000 ft

METAR: PAPB 160753Z AUTO 31007KT 10SM OVC020 11/09 A3003 RMK AO2 SLP156 T01060089 TSNO

Laikas: 00:33 (08:33 UTC)


TAF: trūkstamas

Orai ataskaitas ir orų prognozės (METAR, TAF).

turimą stotys yra geltonos ir raudonos taškus žemėlapyje.

Perkelti pele per norėdami pamatyti stoties vardą.

Tada spustelėkite, norėdami matyti oro stebėjimo ir prognozės.

Norėdami pakeisti žemėlapį: spustelėkite ant žalios mygtukų su juodo kryžiaus žemyn,; žalią mygtuką su brūkšneliu, jei norite nutolinti; arba žalių rodyklių gretimoms žemėlapius.


METAR-TAF: